createdAt,value
2023-02-14T00:02:18.433Z,4.60
2023-02-14T00:04:48.228Z,4.60
2023-02-14T00:07:18.849Z,4.50
2023-02-14T00:09:47.808Z,4.50
2023-02-14T00:12:16.815Z,4.50
2023-02-14T00:15:03.689Z,4.50
2023-02-14T00:17:33.501Z,4.50
2023-02-14T00:20:02.808Z,4.50
2023-02-14T00:22:33.577Z,4.50
2023-02-14T00:25:07.383Z,4.40
2023-02-14T00:27:36.823Z,4.40
2023-02-14T00:30:07.141Z,4.40
2023-02-14T00:32:38.537Z,4.40
2023-02-14T00:35:08.620Z,4.40
2023-02-14T00:37:39.221Z,4.40
2023-02-14T00:40:09.371Z,4.30
2023-02-14T00:42:38.666Z,4.30
2023-02-14T00:45:08.409Z,4.30
2023-02-14T00:47:37.670Z,4.30
2023-02-14T00:50:07.506Z,4.30
2023-02-14T00:52:38.034Z,4.30
2023-02-14T00:55:07.472Z,4.20
2023-02-14T00:57:36.572Z,4.20
2023-02-14T01:00:08.107Z,4.20
2023-02-14T01:02:37.274Z,4.20
2023-02-14T01:05:07.164Z,4.20
2023-02-14T01:07:36.152Z,4.20
2023-02-14T01:10:07.978Z,4.20
2023-02-14T01:12:37.065Z,4.20
2023-02-14T01:15:06.572Z,4.20
2023-02-14T01:17:36.498Z,4.20
2023-02-14T01:20:07.046Z,4.20
2023-02-14T01:22:37.189Z,4.20
2023-02-14T01:25:08.514Z,4.20
2023-02-14T01:27:37.680Z,4.20
2023-02-14T01:30:08.018Z,4.20
2023-02-14T01:32:37.324Z,4.20
2023-02-14T01:35:07.955Z,4.20
2023-02-14T01:37:37.588Z,4.20
2023-02-14T01:40:09.996Z,4.20
2023-02-14T01:42:39.139Z,4.10
2023-02-14T01:45:15.753Z,4.10
2023-02-14T01:47:47.471Z,4.10
2023-02-14T01:50:22.697Z,4.10
2023-02-14T01:52:56.330Z,4.10
2023-02-14T01:55:30.100Z,4.10
2023-02-14T01:58:01.657Z,4.00
2023-02-14T02:00:48.216Z,4.00
2023-02-14T02:03:20.248Z,4.00
2023-02-14T02:05:52.624Z,4.00
2023-02-14T02:08:21.678Z,4.00
2023-02-14T02:10:52.084Z,4.00
2023-02-14T02:13:23.790Z,4.00
2023-02-14T02:16:09.579Z,4.00
2023-02-14T02:18:50.026Z,4.00
2023-02-14T02:21:52.449Z,3.90
2023-02-14T02:24:33.831Z,3.90
2023-02-14T02:27:27.166Z,3.90
2023-02-14T02:30:47.743Z,3.90
2023-02-14T02:33:52.501Z,3.90
2023-02-14T02:36:47.670Z,3.80
2023-02-14T02:39:31.009Z,3.80
2023-02-14T02:42:07.648Z,3.80
2023-02-14T02:44:51.033Z,3.80
2023-02-14T02:47:28.591Z,3.80
2023-02-14T02:50:22.087Z,3.80
2023-02-14T02:53:04.131Z,3.80
2023-02-14T02:56:01.761Z,3.80
2023-02-14T02:58:37.754Z,3.90
2023-02-14T03:01:13.629Z,3.90
2023-02-14T03:04:03.581Z,3.90
2023-02-14T03:06:32.585Z,3.90
2023-02-14T03:09:13.547Z,3.90
2023-02-14T03:11:50.142Z,3.90
2023-02-14T03:14:27.561Z,4.00
2023-02-14T03:17:03.667Z,4.00
2023-02-14T03:20:06.345Z,4.00
2023-02-14T03:22:45.421Z,4.00
2023-02-14T03:25:29.419Z,4.10
2023-02-14T03:28:05.202Z,4.10
2023-02-14T03:30:42.714Z,4.20
2023-02-14T03:33:21.776Z,4.20
2023-02-14T03:36:01.956Z,4.10
2023-02-14T03:38:35.712Z,4.10
2023-02-14T03:41:11.446Z,4.10
2023-02-14T03:43:45.217Z,4.10
2023-02-14T03:46:20.873Z,4.00
2023-02-14T03:48:53.466Z,4.00
2023-02-14T03:51:24.443Z,4.00
2023-02-14T03:53:58.006Z,4.00
2023-02-14T03:56:33.912Z,4.00
2023-02-14T03:59:08.184Z,4.00
2023-02-14T04:01:40.398Z,3.90
2023-02-14T04:04:10.842Z,3.90
2023-02-14T04:06:39.942Z,3.90
2023-02-14T04:09:09.019Z,3.80
2023-02-14T04:11:39.435Z,3.80
2023-02-14T04:14:08.456Z,3.70
2023-02-14T04:16:51.341Z,3.70
2023-02-14T04:19:26.066Z,3.70
2023-02-14T04:21:55.039Z,3.70
2023-02-14T04:24:24.054Z,3.70
2023-02-14T04:27:12.329Z,3.80
2023-02-14T04:29:43.338Z,3.80
2023-02-14T04:32:14.665Z,3.90
2023-02-14T04:34:44.480Z,3.90
2023-02-14T04:37:14.006Z,4.00
2023-02-14T04:39:43.015Z,4.00
2023-02-14T04:42:13.411Z,4.00
2023-02-14T04:44:42.450Z,4.00
2023-02-14T04:47:11.387Z,4.00
2023-02-14T04:49:40.246Z,4.00
2023-02-14T04:52:10.228Z,4.00
2023-02-14T04:54:40.036Z,4.00
2023-02-14T04:57:13.351Z,4.00
2023-02-14T04:59:42.264Z,4.00
2023-02-14T05:02:11.307Z,4.00
2023-02-14T05:04:40.609Z,4.00
2023-02-14T05:07:09.626Z,4.00
2023-02-14T05:09:38.724Z,4.00
2023-02-14T05:12:08.128Z,4.10
2023-02-14T05:14:38.481Z,4.10
2023-02-14T05:17:07.383Z,4.10
2023-02-14T05:19:36.344Z,4.10
2023-02-14T05:22:05.346Z,4.10
2023-02-14T05:24:34.521Z,4.10
2023-02-14T05:27:03.729Z,4.10
2023-02-14T05:29:32.692Z,4.10
2023-02-14T05:32:03.147Z,4.10
2023-02-14T05:34:32.167Z,4.20
2023-02-14T05:37:02.423Z,4.10
2023-02-14T05:39:31.280Z,4.20
2023-02-14T05:42:00.214Z,4.20
2023-02-14T05:44:29.200Z,4.20
2023-02-14T05:46:58.305Z,4.20
2023-02-14T05:49:28.821Z,4.20
2023-02-14T05:51:58.131Z,4.20
2023-02-14T05:54:27.470Z,4.30
2023-02-14T05:56:56.686Z,4.30
2023-02-14T05:59:25.901Z,4.30
2023-02-14T06:01:55.420Z,4.30
2023-02-14T06:04:25.234Z,4.20
2023-02-14T06:06:56.662Z,4.30
2023-02-14T06:09:26.556Z,4.30
2023-02-14T06:11:56.171Z,4.30
2023-02-14T06:14:26.337Z,4.30
2023-02-14T06:16:55.934Z,4.30
2023-02-14T06:19:25.054Z,4.30
2023-02-14T06:21:55.789Z,4.30
2023-02-14T06:24:24.869Z,4.30
2023-02-14T06:26:53.919Z,4.30
2023-02-14T06:29:23.037Z,4.30
2023-02-14T06:31:53.080Z,4.40
2023-02-14T06:34:22.223Z,4.40
2023-02-14T06:36:51.443Z,4.40
2023-02-14T06:39:22.223Z,4.40
2023-02-14T06:41:54.433Z,4.40
2023-02-14T06:44:23.637Z,4.40
2023-02-14T06:46:52.714Z,4.40
2023-02-14T06:49:21.711Z,4.40
2023-02-14T06:51:50.861Z,4.30
2023-02-14T06:54:21.399Z,4.30
2023-02-14T06:56:53.288Z,4.30
2023-02-14T06:59:22.587Z,4.30
2023-02-14T07:01:52.143Z,4.30
2023-02-14T07:04:21.208Z,4.40
2023-02-14T07:06:50.258Z,4.30
2023-02-14T07:09:21.567Z,4.40
2023-02-14T07:11:50.591Z,4.40
2023-02-14T07:14:19.753Z,4.40
2023-02-14T07:16:49.121Z,4.40
2023-02-14T07:19:18.188Z,4.30
2023-02-14T07:21:47.208Z,4.30
2023-02-14T07:24:16.238Z,4.20
2023-02-14T07:26:46.906Z,4.20
2023-02-14T07:29:15.865Z,4.20
2023-02-14T07:31:44.999Z,4.20
2023-02-14T07:34:14.088Z,4.30
2023-02-14T07:36:44.086Z,4.30
2023-02-14T07:39:13.110Z,4.30
2023-02-14T07:41:42.144Z,4.30
2023-02-14T07:44:13.993Z,4.30
2023-02-14T07:46:43.016Z,4.40
2023-02-14T07:49:12.495Z,4.40
2023-02-14T07:51:41.438Z,4.40
2023-02-14T07:54:10.726Z,4.40
2023-02-14T07:56:40.528Z,4.50
2023-02-14T07:59:09.663Z,4.50
2023-02-14T08:01:40.363Z,4.50
2023-02-14T08:04:09.860Z,4.40
2023-02-14T08:06:38.658Z,4.40
2023-02-14T08:09:10.206Z,4.40
2023-02-14T08:11:57.215Z,4.40
2023-02-14T08:14:26.011Z,4.30
2023-02-14T08:16:56.461Z,4.30
2023-02-14T08:19:25.603Z,4.30
2023-02-14T08:21:54.610Z,4.30
2023-02-14T08:24:23.517Z,4.30
2023-02-14T08:26:52.773Z,4.30
2023-02-14T08:29:21.917Z,4.20
2023-02-14T08:31:51.432Z,4.20
2023-02-14T08:34:21.834Z,4.20
2023-02-14T08:36:52.068Z,4.20
2023-02-14T08:39:21.049Z,4.20
2023-02-14T08:41:50.168Z,4.20
2023-02-14T08:44:19.368Z,4.30
2023-02-14T08:46:48.752Z,4.30
2023-02-14T08:49:18.268Z,4.30
2023-02-14T08:51:48.988Z,4.30
2023-02-14T08:54:18.069Z,4.30
2023-02-14T08:56:47.451Z,4.30
2023-02-14T08:59:16.559Z,4.40
2023-02-14T09:01:45.595Z,4.40
2023-02-14T09:04:14.892Z,4.50
2023-02-14T09:06:44.205Z,4.60
2023-02-14T09:09:14.585Z,4.60
2023-02-14T09:11:43.654Z,4.60
2023-02-14T09:14:12.707Z,4.60
2023-02-14T09:16:41.841Z,4.70
2023-02-14T09:19:10.804Z,4.70
2023-02-14T09:21:41.439Z,4.70
2023-02-14T09:24:10.782Z,4.80
2023-02-14T09:26:42.168Z,4.80
2023-02-14T09:29:13.183Z,4.90
2023-02-14T09:31:42.334Z,4.90
2023-02-14T09:34:28.646Z,4.90
2023-02-14T09:37:15.158Z,5.00
2023-02-14T09:39:44.270Z,5.00
2023-02-14T09:42:41.289Z,5.00
2023-02-14T09:45:14.157Z,5.00
2023-02-14T09:47:48.326Z,5.00
2023-02-14T09:50:23.544Z,5.10
2023-02-14T09:52:56.484Z,5.10
2023-02-14T09:55:29.793Z,5.10
2023-02-14T09:58:17.469Z,5.10
2023-02-14T10:00:49.891Z,5.10
2023-02-14T10:04:01.029Z,5.10
2023-02-14T10:06:46.434Z,5.10
2023-02-14T10:09:27.735Z,5.10
2023-02-14T10:11:59.847Z,5.00
2023-02-14T10:14:33.763Z,5.00
2023-02-14T10:17:08.017Z,5.00
2023-02-14T10:19:41.038Z,5.00
2023-02-14T10:22:15.560Z,5.00
2023-02-14T10:24:48.741Z,5.10
2023-02-14T10:27:31.911Z,5.10
2023-02-14T10:30:03.664Z,5.20
2023-02-14T10:32:40.324Z,5.20
2023-02-14T10:35:20.927Z,5.20
2023-02-14T10:38:00.567Z,5.30
2023-02-14T10:40:45.167Z,5.30
2023-02-14T10:43:24.491Z,5.30
2023-02-14T10:46:03.599Z,5.30
2023-02-14T10:48:45.106Z,5.30
2023-02-14T10:51:17.856Z,5.40
2023-02-14T10:53:54.209Z,5.40
2023-02-14T10:56:32.670Z,5.50
2023-02-14T10:59:08.665Z,5.50
2023-02-14T11:01:39.144Z,5.60
2023-02-14T11:04:11.546Z,5.60
2023-02-14T11:06:40.622Z,5.60
2023-02-14T11:09:12.089Z,5.60
2023-02-14T11:11:45.441Z,5.70
2023-02-14T11:14:24.390Z,5.70
2023-02-14T11:16:55.511Z,5.70
2023-02-14T11:19:27.991Z,5.70
2023-02-14T11:21:59.285Z,5.70
2023-02-14T11:24:32.889Z,5.80
2023-02-14T11:27:04.402Z,5.80
2023-02-14T11:29:42.936Z,5.80
2023-02-14T11:32:16.469Z,5.80
2023-02-14T11:34:48.845Z,5.80
2023-02-14T11:37:26.851Z,5.90
2023-02-14T11:39:57.877Z,5.90
2023-02-14T11:42:36.651Z,5.90
2023-02-14T11:45:07.317Z,5.90
2023-02-14T11:47:41.477Z,5.90
2023-02-14T11:50:23.637Z,5.90
2023-02-14T11:52:55.198Z,5.90
2023-02-14T11:55:29.329Z,5.90
2023-02-14T11:57:59.328Z,5.90
2023-02-14T12:00:31.257Z,6.00
2023-02-14T12:03:05.582Z,6.00
2023-02-14T12:05:38.068Z,6.00
2023-02-14T12:08:09.019Z,6.00
2023-02-14T12:10:39.837Z,6.10
2023-02-14T12:13:25.327Z,6.10
2023-02-14T12:15:55.807Z,6.10
2023-02-14T12:18:47.162Z,6.10
2023-02-14T12:21:54.940Z,6.20
2023-02-14T12:24:38.215Z,6.20
2023-02-14T12:27:20.935Z,6.20
2023-02-14T12:29:53.904Z,6.20
2023-02-14T12:32:25.859Z,6.20
2023-02-14T12:35:03.151Z,6.20
2023-02-14T12:37:41.613Z,6.20
2023-02-14T12:40:18.284Z,6.30
2023-02-14T12:43:11.959Z,6.30
2023-02-14T12:46:04.353Z,6.30
2023-02-14T12:48:48.734Z,6.30
2023-02-14T12:51:26.602Z,6.30
2023-02-14T12:54:08.714Z,6.30
2023-02-14T12:56:50.150Z,6.30
2023-02-14T12:59:30.133Z,6.30
2023-02-14T13:02:29.335Z,6.30
2023-02-14T13:05:02.757Z,6.40
2023-02-14T13:07:47.806Z,6.40
2023-02-14T13:10:26.388Z,6.40
2023-02-14T13:13:05.281Z,6.40
2023-02-14T13:15:43.529Z,6.50
2023-02-14T13:18:24.107Z,6.40
2023-02-14T13:20:57.988Z,6.40
2023-02-14T13:23:33.054Z,6.40
2023-02-14T13:26:06.631Z,6.50
2023-02-14T13:28:38.767Z,6.50
2023-02-14T13:31:08.113Z,6.50
2023-02-14T13:33:41.387Z,6.50
2023-02-14T13:36:13.484Z,6.50
2023-02-14T13:38:47.008Z,6.50
2023-02-14T13:41:17.414Z,6.50
2023-02-14T13:43:48.068Z,6.40
2023-02-14T13:46:19.463Z,6.40
2023-02-14T13:49:01.300Z,6.40
2023-02-14T13:51:46.826Z,6.40
2023-02-14T13:54:31.518Z,6.40
2023-02-14T13:57:02.723Z,6.40
2023-02-14T13:59:33.856Z,6.40
2023-02-14T14:02:31.718Z,6.40
2023-02-14T14:05:00.898Z,6.40
2023-02-14T14:07:33.353Z,6.50
2023-02-14T14:10:07.265Z,6.40
2023-02-14T14:12:41.351Z,6.40
2023-02-14T14:15:14.122Z,6.40
2023-02-14T14:17:45.985Z,6.50
2023-02-14T14:20:43.499Z,6.40
2023-02-14T14:23:32.570Z,6.40
2023-02-14T14:26:03.567Z,6.40
2023-02-14T14:28:34.238Z,6.40
2023-02-14T14:31:03.337Z,6.40
2023-02-14T14:33:34.029Z,6.40
2023-02-14T14:36:07.998Z,6.40
2023-02-14T14:38:48.372Z,6.40
2023-02-14T14:41:19.280Z,6.30
2023-02-14T14:43:48.989Z,6.30
2023-02-14T14:46:18.578Z,6.20
2023-02-14T14:48:50.150Z,6.20
2023-02-14T14:51:25.724Z,6.20
2023-02-14T14:53:58.363Z,6.10
2023-02-14T14:56:31.987Z,6.10
2023-02-14T14:59:18.207Z,6.00
2023-02-14T15:01:47.934Z,6.00
2023-02-14T15:04:19.094Z,5.90
2023-02-14T15:06:49.809Z,5.90
2023-02-14T15:09:24.102Z,5.90
2023-02-14T15:12:26.958Z,5.90
2023-02-14T15:14:56.753Z,5.90
2023-02-14T15:17:28.754Z,5.90
2023-02-14T15:20:01.516Z,5.90
2023-02-14T15:22:36.706Z,5.90
2023-02-14T15:25:10.789Z,5.90
2023-02-14T15:27:43.523Z,5.90
2023-02-14T15:30:25.864Z,5.90
2023-02-14T15:32:55.249Z,5.90
2023-02-14T15:35:27.462Z,5.90
2023-02-14T15:38:01.369Z,5.90
2023-02-14T15:40:33.490Z,6.00
2023-02-14T15:43:15.850Z,6.00
2023-02-14T15:45:46.276Z,6.00
2023-02-14T15:48:18.559Z,6.00
2023-02-14T15:50:51.312Z,6.00
2023-02-14T15:53:37.920Z,5.90
2023-02-14T15:56:10.070Z,5.90
2023-02-14T15:58:41.575Z,5.90
2023-02-14T16:01:10.935Z,5.80
2023-02-14T16:03:45.565Z,5.80
2023-02-14T16:06:30.581Z,5.70
2023-02-14T16:08:59.832Z,5.70
2023-02-14T16:11:30.997Z,5.70
2023-02-14T16:14:21.620Z,5.70
2023-02-14T16:17:04.695Z,5.80
2023-02-14T16:19:36.276Z,5.80
2023-02-14T16:22:07.101Z,5.80
2023-02-14T16:24:37.841Z,5.90
2023-02-14T16:27:07.939Z,5.90
2023-02-14T16:29:39.313Z,5.90
2023-02-14T16:32:16.993Z,5.90
2023-02-14T16:34:48.263Z,5.90
2023-02-14T16:37:27.978Z,5.90
2023-02-14T16:39:57.697Z,5.80
2023-02-14T16:42:26.897Z,5.90
2023-02-14T16:44:57.424Z,5.80
2023-02-14T16:47:27.727Z,5.80
2023-02-14T16:50:00.021Z,5.90
2023-02-14T16:52:29.942Z,5.90
2023-02-14T16:54:58.974Z,5.90
2023-02-14T16:57:31.986Z,5.90
2023-02-14T17:00:02.486Z,5.90
2023-02-14T17:02:31.522Z,5.90
2023-02-14T17:05:00.546Z,5.90
2023-02-14T17:07:32.169Z,5.90
2023-02-14T17:10:04.630Z,5.80
2023-02-14T17:12:39.008Z,5.80
2023-02-14T17:15:13.952Z,5.80
2023-02-14T17:17:43.925Z,5.70
2023-02-14T17:20:14.438Z,5.70
2023-02-14T17:22:44.630Z,5.70
2023-02-14T17:25:14.141Z,5.60
2023-02-14T17:27:44.546Z,5.60
2023-02-14T17:30:16.908Z,5.60
2023-02-14T17:32:46.103Z,5.50
2023-02-14T17:35:15.316Z,5.50
2023-02-14T17:37:44.665Z,5.40
2023-02-14T17:40:14.714Z,5.40
2023-02-14T17:42:45.852Z,5.40
2023-02-14T17:45:18.101Z,5.30
2023-02-14T17:47:47.717Z,5.30
2023-02-14T17:50:18.061Z,5.30
2023-02-14T17:52:47.096Z,5.30
2023-02-14T17:55:18.730Z,5.40
2023-02-14T17:57:52.240Z,5.30
2023-02-14T18:00:23.897Z,5.30
2023-02-14T18:02:52.817Z,5.30
2023-02-14T18:05:21.789Z,5.30
2023-02-14T18:07:52.693Z,5.40
2023-02-14T18:10:21.945Z,5.40
2023-02-14T18:12:50.981Z,5.30
2023-02-14T18:15:20.796Z,5.30
2023-02-14T18:17:51.773Z,5.30
2023-02-14T18:20:21.442Z,5.20
2023-02-14T18:22:50.346Z,5.20
2023-02-14T18:25:19.583Z,5.20
2023-02-14T18:27:48.705Z,5.20
2023-02-14T18:30:18.061Z,5.10
2023-02-14T18:32:47.828Z,5.20
2023-02-14T18:35:18.534Z,5.20
2023-02-14T18:37:47.561Z,5.20
2023-02-14T18:40:20.152Z,5.20
2023-02-14T18:42:49.232Z,5.20
2023-02-14T18:45:18.595Z,5.20
2023-02-14T18:47:47.834Z,5.30
2023-02-14T18:50:21.059Z,5.30
2023-02-14T18:52:50.200Z,5.30
2023-02-14T18:55:19.553Z,5.30
2023-02-14T18:57:48.515Z,5.30
2023-02-14T19:00:18.063Z,5.30
2023-02-14T19:02:47.199Z,5.30
2023-02-14T19:05:16.368Z,5.30
2023-02-14T19:07:47.158Z,5.20
2023-02-14T19:10:16.361Z,5.20
2023-02-14T19:12:46.958Z,5.20
2023-02-14T19:15:16.360Z,5.10
2023-02-14T19:17:45.890Z,5.10
2023-02-14T19:20:16.372Z,5.10
2023-02-14T19:22:48.407Z,5.10
2023-02-14T19:25:17.584Z,5.10
2023-02-14T19:27:46.585Z,5.10
2023-02-14T19:30:16.023Z,5.10
2023-02-14T19:32:45.065Z,5.10
2023-02-14T19:35:14.514Z,5.10
2023-02-14T19:37:43.477Z,5.20
2023-02-14T19:40:14.337Z,5.20
2023-02-14T19:42:43.413Z,5.20
2023-02-14T19:45:12.718Z,5.20
2023-02-14T19:47:47.057Z,5.20
2023-02-14T19:50:17.601Z,5.20
2023-02-14T19:52:46.608Z,5.20
2023-02-14T19:55:23.451Z,5.30
2023-02-14T19:57:52.488Z,5.20
2023-02-14T20:00:21.629Z,5.20
2023-02-14T20:02:50.613Z,5.20
2023-02-14T20:05:20.759Z,5.20
2023-02-14T20:07:52.024Z,5.20
2023-02-14T20:10:22.692Z,5.20
2023-02-14T20:12:51.950Z,5.20
2023-02-14T20:15:21.089Z,5.20
2023-02-14T20:17:50.014Z,5.10
2023-02-14T20:20:19.328Z,5.10
2023-02-14T20:22:48.244Z,5.00
2023-02-14T20:25:17.294Z,5.00
2023-02-14T20:27:47.586Z,5.00
2023-02-14T20:30:20.775Z,4.90
2023-02-14T20:32:52.192Z,4.90
2023-02-14T20:35:21.642Z,4.90
2023-02-14T20:37:52.389Z,5.00
2023-02-14T20:40:21.488Z,4.90
2023-02-14T20:42:52.172Z,4.90
2023-02-14T20:45:21.117Z,4.90
2023-02-14T20:47:50.029Z,4.90
2023-02-14T20:50:19.378Z,4.90
2023-02-14T20:52:48.358Z,4.90
2023-02-14T20:55:17.757Z,4.90
2023-02-14T20:57:46.609Z,4.90
2023-02-14T21:00:17.456Z,4.90
2023-02-14T21:02:46.384Z,4.90
2023-02-14T21:05:18.384Z,4.90
2023-02-14T21:07:47.541Z,4.90
2023-02-14T21:10:17.085Z,4.90
2023-02-14T21:12:46.055Z,4.90
2023-02-14T21:15:16.618Z,4.90
2023-02-14T21:17:45.805Z,4.90
2023-02-14T21:20:15.294Z,4.90
2023-02-14T21:22:44.233Z,4.80
2023-02-14T21:25:13.204Z,4.80
2023-02-14T21:27:42.340Z,4.80
2023-02-14T21:30:12.301Z,4.80
2023-02-14T21:32:42.763Z,4.70
2023-02-14T21:35:11.718Z,4.70
2023-02-14T21:37:40.653Z,4.70
2023-02-14T21:40:10.770Z,4.60
2023-02-14T21:42:39.885Z,4.60
2023-02-14T21:45:28.591Z,4.60
2023-02-14T21:48:17.076Z,4.60
2023-02-14T21:50:46.173Z,4.60
2023-02-14T21:53:15.485Z,4.60
2023-02-14T21:55:46.048Z,4.60
2023-02-14T21:58:15.388Z,4.60
2023-02-14T22:00:46.460Z,4.60
2023-02-14T22:03:16.913Z,4.60
2023-02-14T22:05:45.872Z,4.60
2023-02-14T22:08:14.954Z,4.60
2023-02-14T22:10:44.016Z,4.60
2023-02-14T22:13:12.915Z,4.60
2023-02-14T22:15:41.979Z,4.50
2023-02-14T22:18:10.907Z,4.50
2023-02-14T22:20:41.296Z,4.50
2023-02-14T22:23:11.840Z,4.50
2023-02-14T22:25:40.798Z,4.50
2023-02-14T22:28:10.185Z,4.50
2023-02-14T22:30:41.101Z,4.50
2023-02-14T22:33:10.215Z,4.50
2023-02-14T22:35:39.279Z,4.40
2023-02-14T22:38:11.440Z,4.40
2023-02-14T22:40:43.233Z,4.50
2023-02-14T22:43:12.437Z,4.40
2023-02-14T22:45:41.750Z,4.50
2023-02-14T22:48:10.897Z,4.50
2023-02-14T22:50:40.435Z,4.50
2023-02-14T22:53:10.699Z,4.50
2023-02-14T22:55:39.950Z,4.50
2023-02-14T22:58:09.174Z,4.50
2023-02-14T23:00:38.149Z,4.50
2023-02-14T23:03:07.350Z,4.50
2023-02-14T23:05:36.379Z,4.50
2023-02-14T23:08:05.674Z,4.50
2023-02-14T23:10:36.605Z,4.50
2023-02-14T23:13:23.018Z,4.50
2023-02-14T23:16:11.660Z,4.50
2023-02-14T23:18:58.402Z,4.50
2023-02-14T23:21:44.859Z,4.50
2023-02-14T23:24:14.006Z,4.60
2023-02-14T23:26:44.302Z,4.60
2023-02-14T23:29:13.336Z,4.60
2023-02-14T23:31:42.385Z,4.60
2023-02-14T23:34:11.642Z,4.60
2023-02-14T23:36:40.834Z,4.60
2023-02-14T23:39:09.944Z,4.60
2023-02-14T23:41:48.335Z,4.50
2023-02-14T23:44:20.720Z,4.40
2023-02-14T23:46:51.877Z,4.40
2023-02-14T23:49:21.320Z,4.30
2023-02-14T23:51:51.449Z,4.30
2023-02-14T23:54:21.373Z,4.30
2023-02-14T23:56:51.040Z,4.30
2023-02-14T23:59:22.525Z,4.30
